Time;durP1;ratioP1;P1;durP2;ratioP2;P2;SDS_P1;SDS_P2;PMS_P1;PMS_P2;Temp;Humidity;BMP_temperature;BMP_pressure;BME280_temperature;BME280_humidity;BME280_pressure;Samples;Min_cycle;Max_cycle;Signal;HPM_P1;HPM_P2
2022/10/21 00:00:35;;;;;;;;;;;;;;;24.64;45.25;97370.47;5075014;28;20268;-36
2022/10/21 00:03:01;;;;;;;;;;;;;;;24.61;45.44;97371.47;5074832;28;19962;-37
2022/10/21 00:05:26;;;;;;;;;;;;;;;24.65;45.47;97364.44;5074891;28;20292;-36
2022/10/21 00:07:53;;;;;;;;;;;;;;;24.64;45.51;97365.69;5075090;28;19919;-36
2022/10/21 00:10:18;;;;;;;;;;;;;;;24.63;45.53;97364.16;5073860;28;19908;-36
2022/10/21 00:12:44;;;;;;;;;;;;;;;24.63;45.32;97358.63;5074827;28;19908;-36
2022/10/21 00:15:10;;;;;;;;;;;;;;;24.57;45.53;97360.63;5074934;28;19939;-37
2022/10/21 00:17:38;;;;;;;;;;;;;;;24.57;45.59;97359.84;5074312;28;19909;-36
2022/10/21 00:20:05;;;;;;;;;;;;;;;24.63;45.53;97364.16;5075230;28;19969;-36
2022/10/21 00:22:30;;;;;;;;;;;;;;;24.55;45.75;97365.91;5072897;28;19923;-36
2022/10/21 00:24:57;;;;;;;;;;;;;;;24.52;45.94;97363.34;5074396;28;20010;-36
2022/10/21 00:27:22;;;;;;;;;;;;;;;24.56;45.90;97366.66;5074769;28;19908;-36
2022/10/21 00:29:47;;;;;;;;;;;;;;;24.56;45.74;97361.13;5074485;28;19931;-36
2022/10/21 00:32:13;;;;;;;;;;;;;;;24.51;46.05;97362.59;5073286;28;19912;-36
2022/10/21 00:34:41;;;;;;;;;;;;;;;24.53;45.96;97364.88;5072849;28;19908;-36
2022/10/21 00:37:07;;;;;;;;;;;;;;;24.55;45.88;97354.03;5073894;28;20449;-37
2022/10/21 00:39:32;;;;;;;;;;;;;;;24.52;45.82;97353.03;5074383;28;19962;-37
2022/10/21 00:41:59;;;;;;;;;;;;;;;24.51;45.78;97362.59;5074398;28;20011;-36
2022/10/21 00:44:25;;;;;;;;;;;;;;;24.49;45.84;97359.56;5074278;28;19936;-36
2022/10/21 00:46:53;;;;;;;;;;;;;;;24.49;45.61;97348.47;5074197;28;20322;-36
2022/10/21 00:49:22;;;;;;;;;;;;;;;24.54;45.80;97341.44;5074328;28;20299;-36
2022/10/21 00:51:50;;;;;;;;;;;;;;;24.48;46.11;97346.22;5074143;28;20378;-36
2022/10/21 00:54:17;;;;;;;;;;;;;;;24.48;45.90;97363.59;5074149;28;20283;-36
2022/10/21 00:56:43;;;;;;;;;;;;;;;24.50;45.71;97363.84;5074192;28;19909;-36
2022/10/21 00:59:10;;;;;;;;;;;;;;;24.47;45.47;97364.88;5074244;28;20362;-38
2022/10/21 01:01:36;;;;;;;;;;;;;;;24.45;45.59;97364.59;5073932;28;20450;-37
2022/10/21 01:04:02;;;;;;;;;;;;;;;24.46;45.58;97366.13;5073126;28;19998;-36
2022/10/21 01:06:29;;;;;;;;;;;;;;;24.48;45.66;97362.84;5074537;28;19999;-36
2022/10/21 01:08:55;;;;;;;;;;;;;;;24.47;45.86;97366.88;5073853;28;19923;-36
2022/10/21 01:11:22;;;;;;;;;;;;;;;24.46;45.76;97365.34;5072599;28;20260;-36
2022/10/21 01:14:05;;;;;;;;;;;;;;;24.41;45.90;97364.06;5073914;28;19908;-36
2022/10/21 01:16:53;;;;;;;;;;;;;;;24.35;45.88;97354.97;5073881;28;19915;-36
2022/10/21 01:19:37;;;;;;;;;;;;;;;24.40;45.79;97353.47;5073280;28;19962;-37
2022/10/21 01:22:23;;;;;;;;;;;;;;;24.39;45.75;97355.47;5073957;28;19942;-36
2022/10/21 01:25:04;;;;;;;;;;;;;;;24.36;45.73;97356.47;5074030;28;19909;-37
2022/10/21 01:27:36;;;;;;;;;;;;;;;24.39;45.68;97343.63;5073786;28;19913;-36
2022/10/21 01:30:07;;;;;;;;;;;;;;;24.41;45.55;97338.34;5074313;28;19966;-36
2022/10/21 01:32:35;;;;;;;;;;;;;;;24.38;45.40;97331.78;5073654;28;19959;-37
2022/10/21 01:35:01;;;;;;;;;;;;;;;24.39;45.51;97324.97;5073979;28;20325;-36
2022/10/21 01:37:30;;;;;;;;;;;;;;;24.35;45.43;97318.94;5072955;28;20379;-36
2022/10/21 01:40:06;;;;;;;;;;;;;;;24.37;45.67;97326.72;5073358;28;19917;-37
2022/10/21 01:42:39;;;;;;;;;;;;;;;24.39;45.40;97327.75;5073472;28;19977;-36
2022/10/21 01:45:28;;;;;;;;;;;;;;;24.36;45.33;97319.69;5073754;28;20290;-36
2022/10/21 01:47:56;;;;;;;;;;;;;;;24.34;45.38;97318.19;5073395;28;20379;-38
2022/10/21 01:50:25;;;;;;;;;;;;;;;24.36;45.07;97317.66;5073826;28;19966;-36
2022/10/21 01:52:52;;;;;;;;;;;;;;;24.35;45.15;97321.72;5073439;28;19954;-37
2022/10/21 01:55:19;;;;;;;;;;;;;;;24.24;45.35;97313.31;5073341;28;20007;-36
2022/10/21 01:57:47;;;;;;;;;;;;;;;24.31;45.16;97312.84;5073632;28;19915;-36
2022/10/21 02:00:13;;;;;;;;;;;;;;;24.31;45.20;97302.53;5077293;28;19913;-36
2022/10/21 02:02:41;;;;;;;;;;;;;;;24.28;45.21;97313.84;5077475;28;19919;-36
2022/10/21 02:05:09;;;;;;;;;;;;;;;24.24;45.23;97310.53;5077306;28;19915;-36
2022/10/21 02:07:35;;;;;;;;;;;;;;;24.24;45.41;97318.84;5077060;28;19912;-36
2022/10/21 02:10:02;;;;;;;;;;;;;;;24.20;45.50;97310.75;5077183;28;19916;-36
2022/10/21 02:12:29;;;;;;;;;;;;;;;24.24;45.46;97311.28;5077548;28;19915;-36
2022/10/21 02:14:56;;;;;;;;;;;;;;;24.22;45.56;97308.28;5076989;28;19951;-37
2022/10/21 02:17:22;;;;;;;;;;;;;;;24.22;45.62;97307.50;5077377;28;20245;-37
2022/10/21 02:19:47;;;;;;;;;;;;;;;24.26;45.64;97303.25;5077169;28;19908;-36
2022/10/21 02:22:16;;;;;;;;;;;;;;;24.22;45.50;97307.50;5076837;28;19916;-36
2022/10/21 02:25:04;;;;;;;;;;;;;;;24.27;45.68;97304.00;5076898;28;19991;-36
2022/10/21 02:27:29;;;;;;;;;;;;;;;24.22;45.58;97311.06;5075551;28;19915;-36
2022/10/21 02:29:57;;;;;;;;;;;;;;;24.24;45.42;97300.22;5076769;28;19908;-36
2022/10/21 02:32:41;;;;;;;;;;;;;;;24.23;45.21;97315.31;5076752;28;19908;-36
2022/10/21 02:35:19;;;;;;;;;;;;;;;24.15;45.27;97311.47;5077066;28;20007;-36
2022/10/21 02:38:04;;;;;;;;;;;;;;;24.19;45.15;97317.56;5076696;28;19940;-36
2022/10/21 02:40:29;;;;;;;;;;;;;;;24.17;45.28;97320.06;5076381;28;19966;-37
2022/10/21 02:43:01;;;;;;;;;;;;;;;24.18;45.47;97318.06;5076450;28;19913;-36
2022/10/21 02:45:27;;;;;;;;;;;;;;;24.18;45.39;97318.81;5076520;28;20364;-36
2022/10/21 02:47:52;;;;;;;;;;;;;;;24.20;45.38;97307.22;5076702;28;19919;-36
2022/10/21 02:50:18;;;;;;;;;;;;;;;24.18;45.46;97304.94;5075227;28;19908;-37
2022/10/21 02:52:43;;;;;;;;;;;;;;;24.20;45.55;97299.69;5076545;28;20360;-36
2022/10/21 02:55:08;;;;;;;;;;;;;;;24.20;45.71;97298.91;5076473;28;19908;-36
2022/10/21 02:57:34;;;;;;;;;;;;;;;24.19;45.65;97302.94;5076306;28;20310;-36
2022/10/21 02:59:59;;;;;;;;;;;;;;;24.18;45.60;97304.19;5076299;28;19939;-37
2022/10/21 03:02:24;;;;;;;;;;;;;;;24.15;45.47;97300.41;5076267;28;19923;-37
2022/10/21 03:04:50;;;;;;;;;;;;;;;24.11;45.84;97302.63;5076398;28;19916;-36
2022/10/21 03:07:15;;;;;;;;;;;;;;;24.18;45.40;97304.94;5076156;28;19908;-37
2022/10/21 03:09:40;;;;;;;;;;;;;;;24.10;45.52;97303.16;5076586;28;19961;-36
2022/10/21 03:12:06;;;;;;;;;;;;;;;24.10;45.62;97305.94;5076069;28;19908;-37
2022/10/21 03:14:31;;;;;;;;;;;;;;;24.15;45.37;97308.72;5075955;28;19915;-36
2022/10/21 03:16:56;;;;;;;;;;;;;;;24.14;45.54;97309.19;5076630;28;20284;-36
2022/10/21 03:19:22;;;;;;;;;;;;;;;24.06;45.56;97303.38;5075848;28;19908;-37
2022/10/21 03:21:47;;;;;;;;;;;;;;;24.11;45.46;97308.19;5075933;28;20011;-36
2022/10/21 03:24:12;;;;;;;;;;;;;;;24.08;45.53;97313.97;5075923;28;19964;-36
2022/10/21 03:26:38;;;;;;;;;;;;;;;24.09;45.38;97312.72;5076190;28;19948;-36
2022/10/21 03:29:03;;;;;;;;;;;;;;;24.06;45.51;97310.94;5075883;28;20417;-37
2022/10/21 03:31:28;;;;;;;;;;;;;;;24.10;45.22;97317.00;5075691;28;19908;-36
2022/10/21 03:33:54;;;;;;;;;;;;;;;24.04;45.72;97307.88;5074673;28;19995;-36
2022/10/21 03:36:19;;;;;;;;;;;;;;;24.08;45.31;97314.72;5075921;28;19908;-36
2022/10/21 03:38:44;;;;;;;;;;;;;;;24.06;45.43;97308.16;5075489;28;19908;-36
2022/10/21 03:41:10;;;;;;;;;;;;;;;24.04;45.68;97305.88;5075194;28;19917;-36
2022/10/21 03:43:35;;;;;;;;;;;;;;;24.13;45.20;97307.69;5075358;28;20308;-36
2022/10/21 03:46:00;;;;;;;;;;;;;;;24.03;45.70;97311.91;5075306;28;19909;-36
2022/10/21 03:48:27;;;;;;;;;;;;;;;23.99;45.79;97312.13;5075362;28;19915;-36
2022/10/21 03:50:53;;;;;;;;;;;;;;;24.04;45.48;97307.88;5075736;28;19995;-36
2022/10/21 03:53:19;;;;;;;;;;;;;;;24.00;45.61;97308.88;5075267;28;19908;-36
2022/10/21 03:55:45;;;;;;;;;;;;;;;24.09;45.15;97305.16;5075176;28;19995;-36
2022/10/21 03:58:10;;;;;;;;;;;;;;;24.03;45.36;97304.38;5075353;28;19915;-38
2022/10/21 04:00:36;;;;;;;;;;;;;;;23.97;45.37;97309.88;5075306;28;19908;-37
2022/10/21 04:03:01;;;;;;;;;;;;;;;24.03;45.28;97311.91;5075342;28;20289;-36
2022/10/21 04:05:26;;;;;;;;;;;;;;;24.04;44.92;97303.09;5075521;28;19912;-36
2022/10/21 04:07:52;;;;;;;;;;;;;;;23.97;45.05;97293.25;5075262;28;19915;-36
2022/10/21 04:10:17;;;;;;;;;;;;;;;23.95;45.32;97301.31;5075049;28;19912;-36
2022/10/21 04:12:42;;;;;;;;;;;;;;;23.96;45.39;97308.38;5074834;28;20294;-36
2022/10/21 04:15:10;;;;;;;;;;;;;;;24.00;44.93;97308.13;5074835;28;20390;-36
2022/10/21 04:17:35;;;;;;;;;;;;;;;24.02;44.80;97310.41;5074712;28;19908;-36
2022/10/21 04:20:00;;;;;;;;;;;;;;;23.99;45.05;97306.59;5074989;28;20383;-36
2022/10/21 04:22:26;;;;;;;;;;;;;;;23.95;44.76;97300.53;5074112;28;19912;-36
2022/10/21 04:24:51;;;;;;;;;;;;;;;23.94;44.88;97305.31;5074887;28;19962;-36
2022/10/21 04:27:16;;;;;;;;;;;;;;;23.91;45.12;97311.84;5074435;28;20397;-36
2022/10/21 04:29:42;;;;;;;;;;;;;;;23.96;45.02;97305.59;5074531;28;19915;-37
2022/10/21 04:32:07;;;;;;;;;;;;;;;23.97;44.71;97307.13;5074554;28;19957;-39
2022/10/21 04:34:32;;;;;;;;;;;;;;;23.92;45.22;97307.81;5074417;28;19912;-36
2022/10/21 04:36:58;;;;;;;;;;;;;;;23.97;44.76;97303.59;5074409;28;19905;-36
2022/10/21 04:39:23;;;;;;;;;;;;;;;23.88;44.72;97310.06;5072595;28;19921;-37
2022/10/21 04:41:51;;;;;;;;;;;;;;;23.84;45.12;97308.78;5074412;28;19915;-36
2022/10/21 04:44:16;;;;;;;;;;;;;;;23.91;44.66;97308.31;5074522;28;20398;-36
2022/10/21 04:46:42;;;;;;;;;;;;;;;23.95;44.61;97304.06;5074363;28;19908;-36
2022/10/21 04:49:07;;;;;;;;;;;;;;;23.95;44.67;97301.31;5073016;28;19961;-36
2022/10/21 04:51:32;;;;;;;;;;;;;;;23.94;44.81;97304.56;5074192;28;19912;-36
2022/10/21 04:53:59;;;;;;;;;;;;;;;23.92;44.40;97299.50;5074040;28;19908;-36
2022/10/21 04:56:25;;;;;;;;;;;;;;;23.94;44.48;97301.78;5074228;28;20340;-36
2022/10/21 04:58:50;;;;;;;;;;;;;;;23.90;44.42;97304.78;5074512;28;19915;-36
2022/10/21 05:01:15;;;;;;;;;;;;;;;23.89;44.73;97303.28;5073825;28;19908;-36
2022/10/21 05:03:41;;;;;;;;;;;;;;;23.91;44.58;97295.22;5073944;28;19912;-36
2022/10/21 05:06:06;;;;;;;;;;;;;;;23.83;44.58;97298.97;5072448;28;20273;-36
2022/10/21 05:08:33;;;;;;;;;;;;;;;23.88;44.23;97301.75;5072808;28;19908;-36
2022/10/21 05:10:59;;;;;;;;;;;;;;;23.89;44.48;97310.81;5073846;28;20382;-37
2022/10/21 05:13:25;;;;;;;;;;;;;;;23.93;44.21;97314.88;5074102;28;19912;-36
2022/10/21 05:15:50;;;;;;;;;;;;;;;23.82;44.43;97314.81;5072847;28;20353;-36
2022/10/21 05:18:15;;;;;;;;;;;;;;;23.89;44.09;97310.81;5072689;28;19962;-36
2022/10/21 05:20:41;;;;;;;;;;;;;;;23.88;44.51;97301.00;5073871;28;19942;-37
2022/10/21 05:23:06;;;;;;;;;;;;;;;23.90;44.42;97304.03;5072878;28;19919;-36
2022/10/21 05:25:32;;;;;;;;;;;;;;;23.83;44.48;97304.50;5072590;28;19912;-36
2022/10/21 05:27:57;;;;;;;;;;;;;;;23.87;44.34;97307.78;5073633;28;19909;-36
2022/10/21 05:30:22;;;;;;;;;;;;;;;23.81;44.64;97305.00;5073693;28;19912;-37
2022/10/21 05:32:48;;;;;;;;;;;;;;;23.84;44.50;97312.31;5073701;28;19908;-36
2022/10/21 05:35:13;;;;;;;;;;;;;;;23.79;44.50;97310.25;5078237;28;20311;-36
2022/10/21 05:37:38;;;;;;;;;;;;;;;23.78;44.18;97314.28;5077716;28;20004;-36
2022/10/21 05:40:04;;;;;;;;;;;;;;;23.88;44.15;97315.59;5076364;28;19920;-36
2022/10/21 05:42:29;;;;;;;;;;;;;;;23.78;44.29;97319.81;5077731;28;19919;-36
2022/10/21 05:44:55;;;;;;;;;;;;;;;23.79;44.16;97324.09;5077613;28;19916;-36
2022/10/21 05:47:22;;;;;;;;;;;;;;;23.88;44.19;97323.91;5078084;28;19953;-36
2022/10/21 05:49:47;;;;;;;;;;;;;;;23.92;43.92;97324.44;5077997;28;20003;-36
2022/10/21 05:52:13;;;;;;;;;;;;;;;23.87;43.99;97322.38;5076290;28;20422;-36
2022/10/21 05:54:39;;;;;;;;;;;;;;;23.85;43.73;97324.16;5077508;28;19908;-36
2022/10/21 05:57:04;;;;;;;;;;;;;;;23.83;44.05;97332.97;5077559;28;20348;-36
2022/10/21 05:59:30;;;;;;;;;;;;;;;23.78;43.93;97339.22;5077650;28;19916;-36
2022/10/21 06:01:55;;;;;;;;;;;;;;;23.79;43.73;97332.41;5077451;28;19918;-37
2022/10/21 06:04:20;;;;;;;;;;;;;;;23.84;43.70;97334.47;5077304;28;20331;-36
2022/10/21 06:06:46;;;;;;;;;;;;;;;23.88;43.56;97346.06;5077331;28;19908;-37
2022/10/21 06:09:11;;;;;;;;;;;;;;;23.73;43.96;97339.94;5077379;28;19908;-36
2022/10/21 06:11:36;;;;;;;;;;;;;;;23.82;43.63;97348.06;5077139;28;19913;-38
2022/10/21 06:14:02;;;;;;;;;;;;;;;23.87;43.17;97341.78;5073409;28;20356;-37
2022/10/21 06:16:27;;;;;;;;;;;;;;;23.92;43.18;97338.31;5070036;28;19915;-37
2022/10/21 06:18:53;;;;;;;;;;;;;;;23.88;43.35;97337.75;5055505;28;19913;-36
2022/10/21 06:21:18;;;;;;;;;;;;;;;23.79;43.32;97337.97;5066962;28;19915;-36
2022/10/21 06:23:43;;;;;;;;;;;;;;;23.84;43.55;97339.25;5075409;28;19919;-37
2022/10/21 06:26:13;;;;;;;;;;;;;;;23.75;43.63;97342.94;5075288;28;19935;-36
2022/10/21 06:28:39;;;;;;;;;;;;;;;23.69;44.00;97347.72;5075342;28;19919;-37
2022/10/21 06:31:06;;;;;;;;;;;;;;;23.74;43.61;97344.19;5075298;28;19913;-36
2022/10/21 06:33:31;;;;;;;;;;;;;;;23.72;43.55;97345.97;5075208;28;19909;-36
2022/10/21 06:35:59;;;;;;;;;;;;;;;23.72;43.65;97346.72;5075256;28;19908;-36
2022/10/21 06:38:25;;;;;;;;;;;;;;;23.59;44.10;97351.91;5073888;28;19997;-37
2022/10/21 06:40:50;;;;;;;;;;;;;;;23.61;44.07;97355.69;5074488;28;20355;-36
2022/10/21 06:43:16;;;;;;;;;;;;;;;23.58;44.19;97361.47;5074983;28;20314;-36
2022/10/21 06:45:41;;;;;;;;;;;;;;;23.73;43.90;97373.19;5074628;28;20002;-36
2022/10/21 06:48:06;;;;;;;;;;;;;;;23.69;44.07;97371.88;5075120;28;19963;-36
2022/10/21 06:50:32;;;;;;;;;;;;;;;23.78;43.65;97382.75;5074952;28;20454;-36
2022/10/21 06:52:57;;;;;;;;;;;;;;;23.77;43.63;97384.78;5073459;28;20356;-37
2022/10/21 06:55:23;;;;;;;;;;;;;;;23.74;44.05;97396.81;5075104;28;19916;-36
2022/10/21 06:57:48;;;;;;;;;;;;;;;23.62;44.16;97392.44;5074927;28;19967;-36
2022/10/21 07:00:14;;;;;;;;;;;;;;;23.68;44.03;97393.25;5074840;28;19908;-36
2022/10/21 07:02:40;;;;;;;;;;;;;;;23.74;44.21;97396.81;5074528;28;20014;-36
2022/10/21 07:05:05;;;;;;;;;;;;;;;23.76;44.06;97408.19;5074725;28;19923;-36
2022/10/21 07:07:31;;;;;;;;;;;;;;;23.79;44.25;97409.97;5074415;28;19909;-37
2022/10/21 07:09:56;;;;;;;;;;;;;;;23.81;43.93;97421.31;5062342;28;19947;-37
2022/10/21 07:12:22;;;;;;;;;;;;;;;23.82;44.21;97425.63;5054540;28;19913;-37
2022/10/21 07:14:48;;;;;;;;;;;;;;;23.82;44.17;97430.41;5054218;28;19938;-36
2022/10/21 07:17:16;;;;;;;;;;;;;;;23.80;44.12;97422.56;5054237;28;20600;-37
2022/10/21 07:19:41;;;;;;;;;;;;;;;23.77;44.47;97422.78;5054475;28;19916;-37
2022/10/21 07:22:06;;;;;;;;;;;;;;;23.75;44.40;97420.50;5054258;28;19917;-38
2022/10/21 07:24:32;;;;;;;;;;;;;;;23.72;44.58;97421.50;5062132;28;19919;-36
2022/10/21 07:26:57;;;;;;;;;;;;;;;23.77;44.52;97423.53;5073524;28;19912;-38
2022/10/21 07:29:22;;;;;;;;;;;;;;;23.71;44.69;97419.97;5073801;28;19916;-36
2022/10/21 07:31:48;;;;;;;;;;;;;;;23.77;44.61;97412.47;5073812;28;19920;-36
2022/10/21 07:34:13;;;;;;;;;;;;;;;23.77;44.88;97418.00;5074296;28;20420;-36
2022/10/21 07:36:41;;;;;;;;;;;;;;;23.78;44.77;97408.44;5072464;28;19915;-37
2022/10/21 07:39:08;;;;;;;;;;;;;;;23.70;44.96;97412.16;5073791;28;19915;-34
2022/10/21 07:41:36;;;;;;;;;;;;;;;23.77;44.67;97415.25;5074227;28;19924;-36
2022/10/21 07:44:02;;;;;;;;;;;;;;;23.74;44.93;97413.44;5074162;28;19917;-36
2022/10/21 07:46:28;;;;;;;;;;;;;;;23.78;44.82;97418.78;5073902;28;19920;-36
2022/10/21 07:48:54;;;;;;;;;;;;;;;23.71;45.14;97410.91;5073910;28;19920;-37
2022/10/21 07:51:21;;;;;;;;;;;;;;;23.03;47.18;97422.50;5073271;28;19951;-32
2022/10/21 07:53:50;;;;;;;;;;;;;;;22.79;48.85;97420.72;5072307;28;19923;-37
2022/10/21 07:56:18;;;;;;;;;;;;;;;23.07;48.08;97418.31;5071684;28;19920;-36
2022/10/21 07:58:43;;;;;;;;;;;;;;;23.33;47.27;97425.88;5073472;28;19917;-36
2022/10/21 08:01:10;;;;;;;;;;;;;;;23.39;47.18;97415.59;5073357;28;19908;-37
2022/10/21 08:03:36;;;;;;;;;;;;;;;23.38;47.33;97425.16;5073271;28;19917;-36
2022/10/21 08:06:02;;;;;;;;;;;;;;;23.48;46.70;97404.38;5073387;28;19966;-36
2022/10/21 08:08:27;;;;;;;;;;;;;;;23.58;46.59;97417.59;5073776;28;20348;-36
2022/10/21 08:10:53;;;;;;;;;;;;;;;23.66;46.54;97415.16;5072020;28;19956;-36
2022/10/21 08:13:18;;;;;;;;;;;;;;;23.63;46.68;97411.34;5073381;28;19947;-37
2022/10/21 08:15:44;;;;;;;;;;;;;;;23.72;46.43;97420.75;5073336;28;19959;-36
2022/10/21 08:18:10;;;;;;;;;;;;;;;23.68;46.23;97414.66;5073334;28;20011;-37
2022/10/21 08:20:44;;;;;;;;;;;;;;;23.63;46.44;97413.34;5073373;28;20382;-37
2022/10/21 08:23:11;;;;;;;;;;;;;;;23.63;46.13;97416.13;5074172;28;19912;-36
2022/10/21 08:25:37;;;;;;;;;;;;;;;23.63;46.28;97422.41;5074963;28;19912;-36
2022/10/21 08:28:03;;;;;;;;;;;;;;;23.56;46.16;97416.56;5074558;28;19908;-36
2022/10/21 08:30:30;;;;;;;;;;;;;;;23.46;46.14;97413.19;5074633;28;20442;-37
2022/10/21 08:32:56;;;;;;;;;;;;;;;23.51;46.09;97414.50;5074441;28;19955;-36
2022/10/21 08:35:23;;;;;;;;;;;;;;;23.56;45.91;97413.81;5074659;28;19908;-36
2022/10/21 08:37:49;;;;;;;;;;;;;;;23.66;45.74;97422.69;5074605;28;19912;-36
2022/10/21 08:40:15;;;;;;;;;;;;;;;23.69;45.56;97416.94;5074184;28;19961;-36
2022/10/21 08:42:41;;;;;;;;;;;;;;;23.60;45.68;97414.34;5074845;28;20268;-36
2022/10/21 08:45:25;;;;;;;;;;;;;;;23.68;45.56;97409.88;5074810;28;19916;-36
2022/10/21 08:47:53;;;;;;;;;;;;;;;23.59;45.54;97407.28;5073100;28;19921;-36
2022/10/21 08:50:27;;;;;;;;;;;;;;;23.59;45.50;97407.28;5073466;28;19908;-36
2022/10/21 08:52:58;;;;;;;;;;;;;;;23.63;45.02;97397.50;5074226;28;19955;-36
2022/10/21 08:55:40;;;;;;;;;;;;;;;23.69;44.70;97407.88;5074437;28;19913;-36
2022/10/21 08:58:11;;;;;;;;;;;;;;;23.67;44.93;97408.34;5074205;28;19919;-37
2022/10/21 09:00:38;;;;;;;;;;;;;;;23.67;44.87;97405.59;5073006;28;20318;-36
2022/10/21 09:03:04;;;;;;;;;;;;;;;23.68;44.72;97404.34;5074095;28;19912;-36
2022/10/21 09:05:44;;;;;;;;;;;;;;;23.56;45.05;97416.56;5072633;28;19974;-37
2022/10/21 09:08:09;;;;;;;;;;;;;;;23.69;44.78;97422.47;5074021;28;19908;-36
2022/10/21 09:10:41;;;;;;;;;;;;;;;23.63;44.90;97419.66;5074108;28;20340;-37
2022/10/21 09:13:18;;;;;;;;;;;;;;;23.61;45.03;97424.91;5073928;28;19970;-37
2022/10/21 09:16:03;;;;;;;;;;;;;;;23.69;44.97;97425.25;5074437;28;20257;-36
2022/10/21 09:18:47;;;;;;;;;;;;;;;23.56;45.33;97411.03;5072555;28;19916;-36
2022/10/21 09:21:19;;;;;;;;;;;;;;;23.63;45.03;97411.34;5073909;28;19908;-37
2022/10/21 09:23:44;;;;;;;;;;;;;;;23.63;44.93;97416.13;5074305;28;19912;-36
2022/10/21 09:26:27;;;;;;;;;;;;;;;23.53;45.13;97403.69;5073883;28;19908;-36
2022/10/21 09:28:52;;;;;;;;;;;;;;;23.58;45.08;97403.00;5074024;28;19916;-36
2022/10/21 09:31:19;;;;;;;;;;;;;;;23.50;44.94;97402.66;5073831;28;19908;-36
2022/10/21 09:33:52;;;;;;;;;;;;;;;23.41;45.16;97397.25;5073771;28;19947;-36
2022/10/21 09:36:32;;;;;;;;;;;;;;;23.45;45.17;97391.53;5073771;28;19931;-36
2022/10/21 09:39:15;;;;;;;;;;;;;;;23.40;45.39;97395.75;5073801;28;19908;-36
2022/10/21 09:54:29;;;;;;;;;;;;;;;23.34;45.90;97386.63;5072401;28;20387;-36
2022/10/21 09:56:59;;;;;;;;;;;;;;;23.53;45.37;97392.63;5073824;28;19920;-36
2022/10/21 09:59:24;;;;;;;;;;;;;;;23.66;44.98;97398.53;5073551;28;19919;-37
2022/10/21 10:01:50;;;;;;;;;;;;;;;23.66;44.80;97401.28;5073436;28;20349;-37
2022/10/21 10:04:21;;;;;;;;;;;;;;;23.56;45.06;97397.19;5073223;28;19958;-37
2022/10/21 10:06:47;;;;;;;;;;;;;;;23.59;45.20;97391.44;5071673;28;19966;-37
2022/10/21 10:09:14;;;;;;;;;;;;;;;23.55;45.48;97395.66;5072182;28;20467;-36
2022/10/21 10:11:52;;;;;;;;;;;;;;;23.62;45.02;97395.22;5071798;28;20358;-36
2022/10/21 10:14:26;;;;;;;;;;;;;;;23.50;45.63;97388.81;5071881;28;19912;-36
2022/10/21 10:16:51;;;;;;;;;;;;;;;23.55;45.41;97390.88;5071943;28;19915;-36
2022/10/21 10:19:18;;;;;;;;;;;;;;;23.60;45.34;97392.97;5072028;28;19912;-36
2022/10/21 10:21:44;;;;;;;;;;;;;;;23.60;45.25;97394.97;5074063;28;19965;-36
2022/10/21 10:24:17;;;;;;;;;;;;;;;23.59;45.04;97396.97;5074095;28;20291;-36
2022/10/21 10:26:44;;;;;;;;;;;;;;;23.35;45.66;97398.47;5075700;28;19908;-37
2022/10/21 10:29:15;;;;;;;;;;;;;;;23.54;45.39;97397.66;5075494;28;19912;-36
2022/10/21 10:31:49;;;;;;;;;;;;;;;23.47;45.61;97389.78;5075413;28;19908;-37
2022/10/21 10:34:34;;;;;;;;;;;;;;;23.50;45.22;97404.63;5075316;28;19931;-37
2022/10/21 10:37:18;;;;;;;;;;;;;;;23.63;45.00;97405.03;5075046;28;19912;-37
2022/10/21 10:39:48;;;;;;;;;;;;;;;23.61;45.14;97397.22;5075045;28;20299;-37
2022/10/21 10:42:18;;;;;;;;;;;;;;;23.51;45.26;97387.56;5074938;28;19921;-37
2022/10/21 10:44:44;;;;;;;;;;;;;;;23.65;45.38;97388.69;5076510;28;19908;-37
2022/10/21 10:47:25;;;;;;;;;;;;;;;23.48;45.56;97380.25;5076521;28;19908;-36
2022/10/21 10:49:50;;;;;;;;;;;;;;;23.35;45.96;97384.63;5076580;28;19915;-37
2022/10/21 10:52:20;;;;;;;;;;;;;;;23.48;45.80;97390.56;5076372;28;19913;-36
2022/10/21 10:54:46;;;;;;;;;;;;;;;23.45;45.84;97397.81;5076448;28;19915;-36
2022/10/21 10:57:22;;;;;;;;;;;;;;;23.50;45.67;97385.25;5076466;28;19909;-37
2022/10/21 10:59:55;;;;;;;;;;;;;;;23.57;45.39;97393.16;5076513;28;19916;-37
2022/10/21 11:02:42;;;;;;;;;;;;;;;23.68;45.53;97387.72;5075962;28;19913;-36
2022/10/21 11:05:19;;;;;;;;;;;;;;;23.53;46.00;97378.78;5076328;28;20001;-36
2022/10/21 11:07:47;;;;;;;;;;;;;;;23.54;45.93;97377.53;5076328;28;19909;-36
2022/10/21 11:10:13;;;;;;;;;;;;;;;23.57;46.05;97393.16;5076135;28;19963;-36
2022/10/21 11:12:38;;;;;;;;;;;;;;;23.16;47.28;97386.94;5076237;28;19947;-38
2022/10/21 11:15:05;;;;;;;;;;;;;;;23.44;46.33;97387.22;5076172;28;19981;-36
2022/10/21 11:17:36;;;;;;;;;;;;;;;23.37;46.48;97384.91;5076110;28;20285;-36
2022/10/21 11:20:37;;;;;;;;;;;;;;;23.39;46.91;97379.63;5076116;28;19912;-37
2022/10/21 11:23:20;;;;;;;;;;;;;;;23.48;46.15;97391.31;5053789;28;19920;-37
2022/10/21 11:26:15;;;;;;;;;;;;;;;23.26;46.98;97372.47;5054376;28;19908;-38
2022/10/21 11:29:01;;;;;;;;;;;;;;;23.23;46.78;97365.16;5040847;28;20382;-36
2022/10/21 11:31:27;;;;;;;;;;;;;;;23.25;46.86;97362.63;5052671;28;19939;-36
2022/10/21 11:34:04;;;;;;;;;;;;;;;23.18;47.72;97374.16;5053555;28;19909;-36
2022/10/21 11:36:36;;;;;;;;;;;;;;;23.24;47.01;97365.91;5053649;28;19908;-37
2022/10/21 11:39:10;;;;;;;;;;;;;;;23.45;46.70;97363.84;5053524;28;20357;-36
2022/10/21 11:41:42;;;;;;;;;;;;;;;23.62;46.30;97348.13;5053287;28;20008;-37
2022/10/21 11:44:19;;;;;;;;;;;;;;;23.45;46.65;97350.75;5053461;28;20266;-36
2022/10/21 11:47:05;;;;;;;;;;;;;;;22.83;48.53;97359.69;5053526;28;19908;-37
2022/10/21 11:49:53;;;;;;;;;;;;;;;23.11;47.74;97348.94;5053093;28;19909;-37
2022/10/21 11:52:30;;;;;;;;;;;;;;;23.15;47.65;97343.91;5053390;28;20480;-36
2022/10/21 12:01:22;;;;;;;;;;;;;;;23.35;47.08;97354.19;5074275;28;19915;-37
2022/10/21 12:04:06;;;;;;;;;;;;;;;23.37;47.00;97349.66;5075111;28;20362;-36
2022/10/21 12:06:56;;;;;;;;;;;;;;;23.25;47.14;97350.81;5075042;28;19908;-36
2022/10/21 12:09:25;;;;;;;;;;;;;;;23.28;47.05;97356.13;5071848;28;19908;-36
2022/10/21 12:11:57;;;;;;;;;;;;;;;23.42;46.80;97370.34;5075224;28;19908;-36
2022/10/21 12:14:22;;;;;;;;;;;;;;;23.54;46.77;97372.75;5074900;28;19915;-36
2022/10/21 12:16:48;;;;;;;;;;;;;;;23.50;46.98;97374.97;5074921;28;19909;-36
2022/10/21 12:19:14;;;;;;;;;;;;;;;23.47;46.91;97361.34;5074968;28;19963;-37
2022/10/21 12:21:42;;;;;;;;;;;;;;;23.29;47.04;97356.88;5074664;28;19912;-37
2022/10/21 12:24:23;;;;;;;;;;;;;;;23.12;47.67;97359.47;5074841;28;19912;-36
2022/10/21 12:27:01;;;;;;;;;;;;;;;23.32;47.19;97366.22;5074657;28;19915;-36
2022/10/21 12:29:26;;;;;;;;;;;;;;;23.59;46.28;97362.97;5074710;28;20413;-37
2022/10/21 12:31:52;;;;;;;;;;;;;;;23.50;46.77;97360.34;5074658;28;19991;-37
2022/10/21 13:11:11;;;;;;;;;;;;;;;23.33;46.72;97318.69;4006556;28;21034;-33
2022/10/21 13:13:40;;;;;;;;;;;;;;;23.32;46.92;97316.41;5073595;28;19916;-36
2022/10/21 13:16:14;;;;;;;;;;;;;;;23.32;46.87;97314.41;5073823;28;19965;-37
2022/10/21 13:18:49;;;;;;;;;;;;;;;23.34;47.03;97325.00;5074138;28;20356;-36
2022/10/21 13:21:32;;;;;;;;;;;;;;;23.27;47.24;97310.31;5073738;28;19962;-37
2022/10/21 13:24:10;;;;;;;;;;;;;;;23.43;46.80;97310.97;5073689;28;19913;-37
2022/10/21 13:26:37;;;;;;;;;;;;;;;23.42;46.56;97320.50;5073880;28;19915;-36
2022/10/21 13:29:18;;;;;;;;;;;;;;;23.22;47.30;97313.06;5073982;28;19998;-36
2022/10/21 13:31:44;;;;;;;;;;;;;;;23.24;47.08;97322.38;5074104;28;19936;-38
2022/10/21 13:34:25;;;;;;;;;;;;;;;23.29;46.88;97316.13;5073709;28;20356;-37
2022/10/21 13:36:51;;;;;;;;;;;;;;;23.51;46.49;97318.34;5073689;28;20352;-37
2022/10/21 13:39:27;;;;;;;;;;;;;;;23.43;46.85;97313.72;5073852;28;19992;-36
2022/10/21 13:41:57;;;;;;;;;;;;;;;23.36;46.91;97311.41;5073723;28;19915;-37
2022/10/21 13:44:26;;;;;;;;;;;;;;;23.08;50.94;97313.94;5073731;28;20003;-33
2022/10/21 13:46:51;;;;;;;;;;;;;;;23.35;48.42;97326.50;5073571;28;19909;-38
2022/10/21 13:49:32;;;;;;;;;;;;;;;23.86;47.13;97320.13;5073570;28;19915;-37
2022/10/21 13:51:57;;;;;;;;;;;;;;;24.13;46.31;97322.28;5073587;28;19908;-37